Easthampton, MA (01027)

7:27 AM EDT on October 24, 2014 (GMT -0400)
KMANORTH26 | Change Station
CLOSE
Current Station
Personal Weather Station
Location: Northampton, MA
Elevation: 360 ft
Nearby Weather Stations

Elev 360 ft 42.29 °N, 72.71 °W | Updated 2 minutes ago

Rain
Rain
45.0 °F
Feels Like 41 °F
N
7.0
Wind Variable Wind from NNW
Gusts 11.0 mph

Today
High -- | Low -- °F
--% Chance of Precip.
Yesterday
High -- | Low -- °F
Precip. -- in
7:14 AM 5:55 PM
New Moon, 0% visible
Pressure 29.76 in
Visibility 5.0 miles
Clouds Few 4400 ft
Mostly Cloudy 6000 ft
Overcast 7000 ft
Windchill 41 °F
Dew Point 44 °F
Humidity 96%
Rainfall -999.00 in
Snow Depth Not available.
UV 0 out of 12
Pollen .10 out of 12
Air Quality Not available.
Flu Activity No Activity
METAR KBAF 241053Z 34010KT 5SM -RA BR FEW044 BKN060 OVC070 08/06 A2975 RMK AO2 SLP077 P0004 T00830061

More Conditions Fewer Conditions

Pressure 29.76 in
Visibility 5.0 miles
Clouds Few 4400 ft
Mostly Cloudy 6000 ft
Overcast 7000 ft
Windchill 41 °F
Dew Point 44 °F
Humidity 96%
Rainfall -999.00 in
Snow Depth Not available.
UV 0 out of 12
Pollen .10 out of 12
Air Quality Not available.
Flu Activity No Activity
METAR KBAF 241053Z 34010KT 5SM -RA BR FEW044 BKN060 OVC070 08/06 A2975 RMK AO2 SLP077 P0004 T00830061

More Conditions Fewer Conditions

10-Day Weather Forecast

Almanac

Astronomy

Oct. 24, 2014 Rise Set
Actual Time 7:14 AM EDT 5:55 PM EDT
Civil Twilight 6:45 AM EDT 6:23 PM EDT
Nautical Twilight 6:12 AM EDT 6:56 PM EDT
Astronomical Twilight 5:40 AM EDT 7:29 PM EDT
Moon 7:51 AM EDT 6:32 PM EDT
Length of Visible Light 11h 38m
Length of Day
10h 41m
Tomorrow will be 2m 38s shorter.
New Moon, 0% of the Moon is Illuminated
Today
New Moon
Oct 30
First Quarter
Nov 6
Full
Nov 14
Last Quarter
Nov 22
New

Today's Extremes

State Highs State Lows

Community

WunderPhotos

Upload Photos

1,764,525 photos uploaded!

WunderBlogs® & News

Nearby

Air Quality

  Air Quality AQ Index Pollutant
Friday Good
PM2.5
Friday Good
OZONE

Snow Depth

Station Depth Elevation
No new snow has been reported.

Earthquake Activity

City Distance Mag. Time & Date
No recent earthquake activity has been reported nearby.
Minimum magnitude displayed is 2.5.

Coastal Water Temperatures

Place Temperature
No Stations Reporting

Nearby Weather Stations